AirNav   Bose ProFlight Aviation Headset
 
 592 users online  

TS67 Kitty Hawk Flying Field Ultralight Flightpark
Garden Ridge, Texas, USA

GOING TO GARDEN RIDGE?


FAA INFORMATION EFFECTIVE 16 AUGUST 2018

Location

FAA Identifier: TS67
Lat/Long: 29-37-30.8160N / 098-16-41.0440W
29-37.513600N / 098-16.684067W
29.6252267 / -98.2780678
(estimated)
Elevation: 860 ft. / 262 m (estimated)
Variation: 07E (1984)
From city: 1 mile SE of GARDEN RIDGE, TX
Time zone: UTC -5 (UTC -6 during Standard Time)
Zip code: 78154

Ultralight Flight Park Operations

Ultralight Flight Park use: Private use. Permission required prior to landing
Activation date: 06/1984
Control tower: no
ARTCC: HOUSTON CENTER
FSS: SAN ANGELO FLIGHT SERVICE STATION
Attendance: WED-SUN DAWN-DUSK
Wind indicator: yes
Segmented circle: no

Ultralight Flight Park Communications

WX ASOS at SAT (11 nm SW): PHONE 210-805-5583
WX ASOS at BAZ (13 nm E): 119.325 (830-629-7979)

Nearby radio navigation aids

VOR radial/distance  VOR name  Freq  Var
RNDr358/6.4RANDOLPH VORTAC112.3005E
SATr089/9.6SAN ANTONIO VORTAC116.8008E
SSFr012/(23.6)STINSON VOR108.4009E

Ultralight Flight Park Services

Runway Information

Runway 14/32

Dimensions: 700 x 20 ft. / 213 x 6 m
Surface: asphalt
RUNWAY 14  RUNWAY 32
Traffic pattern: leftleft
Markings: basicbasic

Ultralight Flight Park Ownership and Management from official FAA records

Ownership: Privately-owned
Owner: HOUSTON ST ENTERPR. INC.
211 ALAMO PLAZA
SAN ANTONIO, TX 78205
Phone 512-223-1523

Ultralight Flight Park Operational Statistics

Aircraft based on the field: 25
Ultralights: 25
    

Additional Remarks

PLINES 600' WEST OF RWY.

Instrument Procedures

There are no published instrument procedures at TS67.

Some nearby airports with instrument procedures:

KRND - Randolph Air Force Base (6 nm S)
KSAT - San Antonio International Airport (11 nm SW)
KBAZ - New Braunfels Regional Airport (13 nm E)
KSSF - Stinson Municipal Airport (20 nm SW)
KSKF - Kelly Field Airport (21 nm SW)
 
Loc | Ops | Rwys | IFR | FBO | Links
Com | Nav | Svcs | Stats | Notes


 
Area around TS67 (Kitty Hawk Flying Field Ultralight Flightpark)
 
Road maps at: MapQuest Bing Google
 
Aerial photo
WARNING: Photo may not be current or correct
Aerial photo of TS67 (Kitty Hawk Flying Field Ultralight Flightpark)
Photo taken 04-Mar-2007

Do you have a better or more recent aerial photo of Kitty Hawk Flying Field Ultralight Flightpark that you would like to share? If so, please send us your photo.

 
Sectional chart

 
Airport distance calculator
Flying to Kitty Hawk Flying Field Ultralight Flightpark? Find the distance to fly.

From to TS67

Sunrise and sunset
Times for 18-Aug-2018
 Local
(UTC-5)
 Zulu
(UTC)
Morning civil twilight06:3911:39
Sunrise07:0412:04
Sunset20:1001:10
Evening civil twilight20:3501:35

Current date and time
Zulu (UTC)  18-Aug-2018 11:23:37
Local (UTC-5)  18-Aug-2018 06:23:37
 
METAR
KRND 
7nm S 
181104Z AUTO 00000KT 10SM BKN012 24/23 A3006 RMK AO2 SLP170
KSAT 
11nm SW 
181051Z 18006KT 10SM FEW013 25/22 A3007 RMK AO2 SLP162 T02500222
KBAZ 
13nm NE 
181051Z AUTO 21004KT 9SM SCT013 24/23 A3005 RMK AO2 SLP164 T02390228
TAF
KSAT 
11nm SW 
180526Z 1806/1912 16011KT P6SM FEW250 FM181000 18006KT P6SM SCT015 SCT250 FM181500 19007KT P6SM FEW040 FEW250 FM182000 15012KT P6SM FEW060 FEW250 FM190900 18007KT P6SM BKN012
NOTAMs
Click for the latest NOTAMs
NOTAMs are issued by the DoD/FAA and will open in a separate window not controlled by AirNav.

 

 
 

Would you like to see your business listed on this page?

 If your business provides an interesting product or service to pilots, flight crews, aircraft, or users of the Kitty Hawk Flying Field Ultralight Flightpark, you should consider listing it here.  To start the listing process, click on the button below
 
Add a business
 

Other Pages about Kitty Hawk Flying Field Ultralight Flightpark

Update a link
 
Copyright © AirNav, LLC. All rights reserved. Privacy Policy  Contact